createdAt,value
2017-08-21T00:00:41.814Z,1.73
2017-08-21T00:03:15.590Z,1.40
2017-08-21T00:05:49.698Z,1.70
2017-08-21T00:08:23.607Z,1.47
2017-08-21T00:10:57.102Z,1.40
2017-08-21T00:13:30.598Z,1.23
2017-08-21T00:16:05.021Z,1.30
2017-08-21T00:18:38.622Z,1.93
2017-08-21T00:21:12.114Z,2.20
2017-08-21T00:23:46.414Z,1.57
2017-08-21T00:26:20.144Z,1.80
2017-08-21T00:28:54.562Z,1.50
2017-08-21T00:31:28.130Z,1.63
2017-08-21T00:34:01.773Z,1.53
2017-08-21T00:36:35.465Z,1.43
2017-08-21T00:39:09.152Z,1.77
2017-08-21T00:41:42.958Z,1.80
2017-08-21T00:44:17.399Z,1.20
2017-08-21T00:46:51.870Z,1.50
2017-08-21T00:49:25.414Z,2.20
2017-08-21T00:51:59.013Z,1.80
2017-08-21T00:54:32.616Z,1.37
2017-08-21T00:57:06.263Z,1.90
2017-08-21T00:59:39.818Z,1.60
2017-08-21T01:02:13.523Z,1.80
2017-08-21T01:04:47.840Z,1.60
2017-08-21T01:07:21.529Z,2.13
2017-08-21T01:09:55.239Z,1.67
2017-08-21T01:12:28.951Z,1.43
2017-08-21T01:15:02.617Z,1.90
2017-08-21T01:17:37.125Z,1.77
2017-08-21T01:20:10.663Z,1.60
2017-08-21T01:22:45.086Z,1.90
2017-08-21T01:25:18.685Z,1.93
2017-08-21T01:27:52.998Z,1.70
2017-08-21T01:30:27.317Z,1.67
2017-08-21T01:33:01.449Z,1.80
2017-08-21T01:35:35.145Z,1.70
2017-08-21T01:38:10.125Z,1.90
2017-08-21T01:40:44.586Z,1.90
2017-08-21T01:43:18.905Z,1.60
2017-08-21T01:45:52.514Z,1.80
2017-08-21T01:48:26.107Z,1.83
2017-08-21T01:50:59.682Z,2.10
2017-08-21T01:53:33.266Z,1.60
2017-08-21T01:56:06.912Z,1.57
2017-08-21T01:58:40.405Z,1.63
2017-08-21T02:01:14.726Z,2.20
2017-08-21T02:03:48.222Z,1.67
2017-08-21T02:06:21.797Z,1.70
2017-08-21T02:08:55.422Z,1.70
2017-08-21T02:11:29.005Z,1.83
2017-08-21T02:14:02.625Z,1.77
2017-08-21T02:16:36.087Z,1.97
2017-08-21T02:19:09.721Z,1.90
2017-08-21T02:21:43.301Z,2.13
2017-08-21T02:24:16.925Z,2.00
2017-08-21T02:26:50.522Z,1.97
2017-08-21T02:29:24.130Z,1.80
2017-08-21T02:31:57.810Z,1.73
2017-08-21T02:34:31.542Z,1.97
2017-08-21T02:37:05.134Z,2.07
2017-08-21T02:39:38.938Z,1.90
2017-08-21T02:42:12.541Z,1.63
2017-08-21T02:44:46.246Z,1.97
2017-08-21T02:47:20.666Z,2.00
2017-08-21T02:49:54.219Z,1.77
2017-08-21T02:52:27.965Z,2.03
2017-08-21T02:55:01.574Z,2.07
2017-08-21T02:57:35.173Z,2.23
2017-08-21T03:00:09.486Z,2.00
2017-08-21T03:02:43.078Z,1.90
2017-08-21T03:05:16.686Z,1.80
2017-08-21T03:07:50.198Z,1.90
2017-08-21T03:10:24.715Z,1.87
2017-08-21T03:12:58.309Z,1.93
2017-08-21T03:15:31.803Z,2.20
2017-08-21T03:18:06.326Z,1.80
2017-08-21T03:20:40.033Z,2.03
2017-08-21T03:23:13.537Z,1.90
2017-08-21T03:25:47.136Z,1.40
2017-08-21T03:28:20.814Z,1.80
2017-08-21T03:30:54.438Z,1.90
2017-08-21T03:33:28.151Z,2.03
2017-08-21T03:36:01.851Z,1.90
2017-08-21T03:38:36.271Z,2.30
2017-08-21T03:41:09.862Z,1.87
2017-08-21T03:43:43.464Z,1.97
2017-08-21T03:46:17.018Z,1.80
2017-08-21T03:48:50.781Z,2.50
2017-08-21T03:51:24.662Z,1.70
2017-08-21T03:53:58.249Z,1.90
2017-08-21T03:56:31.878Z,2.17
2017-08-21T03:59:05.578Z,2.27
2017-08-21T04:01:39.091Z,2.63
2017-08-21T04:04:12.771Z,1.93
2017-08-21T04:06:46.589Z,2.23
2017-08-21T04:09:20.290Z,2.03
2017-08-21T04:11:54.113Z,1.90
2017-08-21T04:14:27.701Z,2.03
2017-08-21T04:17:01.385Z,2.47
2017-08-21T04:19:35.209Z,1.70
2017-08-21T04:22:08.954Z,2.47
2017-08-21T04:24:42.718Z,2.40
2017-08-21T04:27:16.421Z,2.03
2017-08-21T04:29:50.150Z,1.80
2017-08-21T04:32:24.343Z,2.47
2017-08-21T04:34:58.041Z,2.43
2017-08-21T04:37:32.354Z,2.17
2017-08-21T04:40:06.058Z,2.10
2017-08-21T04:42:39.522Z,1.90
2017-08-21T04:45:13.117Z,2.13
2017-08-21T04:47:46.854Z,2.47
2017-08-21T04:50:20.438Z,1.60
2017-08-21T04:52:54.193Z,2.20
2017-08-21T04:55:27.758Z,1.90
2017-08-21T04:58:01.364Z,2.33
2017-08-21T05:00:34.985Z,2.40
2017-08-21T05:03:08.765Z,1.90
2017-08-21T05:05:42.470Z,2.10
2017-08-21T05:08:16.069Z,1.77
2017-08-21T05:10:49.873Z,1.83
2017-08-21T05:13:23.437Z,1.93
2017-08-21T05:15:57.034Z,2.10
2017-08-21T05:18:31.565Z,1.70
2017-08-21T05:21:05.312Z,1.80
2017-08-21T05:23:38.907Z,2.30
2017-08-21T05:26:12.606Z,2.53
2017-08-21T05:28:46.274Z,1.87
2017-08-21T05:31:20.829Z,2.00
2017-08-21T05:33:54.330Z,1.80
2017-08-21T05:36:27.891Z,1.83
2017-08-21T05:39:02.224Z,2.03
2017-08-21T05:41:35.951Z,1.97
2017-08-21T05:44:09.654Z,2.20
2017-08-21T05:46:43.253Z,2.60
2017-08-21T05:49:17.675Z,2.13
2017-08-21T05:51:51.483Z,2.30
2017-08-21T05:54:26.058Z,2.30
2017-08-21T05:56:59.707Z,2.33
2017-08-21T05:59:33.510Z,2.83
2017-08-21T06:02:07.429Z,2.63
2017-08-21T06:04:41.088Z,2.77
2017-08-21T06:07:14.721Z,3.27
2017-08-21T06:09:49.105Z,2.73
2017-08-21T06:12:22.726Z,3.53
2017-08-21T06:14:56.350Z,4.27
2017-08-21T06:17:29.793Z,2.50
2017-08-21T06:20:03.481Z,2.90
2017-08-21T06:22:37.957Z,2.20
2017-08-21T06:25:11.745Z,3.23
2017-08-21T06:27:46.116Z,2.80
2017-08-21T06:30:19.794Z,3.13
2017-08-21T06:32:53.502Z,2.67
2017-08-21T06:35:27.301Z,3.60
2017-08-21T06:38:00.799Z,2.40
2017-08-21T06:40:34.602Z,3.50
2017-08-21T06:43:08.418Z,3.30
2017-08-21T06:45:41.990Z,2.67
2017-08-21T06:48:15.609Z,2.63
2017-08-21T06:50:49.891Z,4.47
2017-08-21T06:53:23.634Z,2.73
2017-08-21T06:55:57.078Z,3.17
2017-08-21T06:58:30.941Z,3.13
2017-08-21T07:01:04.683Z,4.20
2017-08-21T07:03:38.541Z,2.97
2017-08-21T07:06:12.867Z,3.50
2017-08-21T07:08:46.475Z,3.33
2017-08-21T07:11:20.086Z,3.53
2017-08-21T07:13:53.745Z,3.27
2017-08-21T07:16:27.310Z,3.93
2017-08-21T07:19:01.689Z,3.03
2017-08-21T07:21:35.286Z,3.23
2017-08-21T07:24:08.998Z,3.30
2017-08-21T07:26:42.594Z,3.40
2017-08-21T07:29:16.986Z,3.73
2017-08-21T07:31:50.482Z,3.23
2017-08-21T07:34:24.250Z,3.53
2017-08-21T07:36:57.857Z,3.57
2017-08-21T07:39:31.426Z,4.37
2017-08-21T07:42:05.128Z,4.60
2017-08-21T07:44:38.889Z,3.57
2017-08-21T07:47:12.521Z,3.63
2017-08-21T07:49:46.833Z,3.47
2017-08-21T07:52:21.126Z,3.27
2017-08-21T07:54:55.578Z,3.60
2017-08-21T07:57:29.177Z,3.17
2017-08-21T08:00:02.793Z,2.97
2017-08-21T08:02:36.385Z,4.00
2017-08-21T08:05:09.982Z,3.13
2017-08-21T08:07:43.481Z,3.83
2017-08-21T08:10:18.549Z,3.83
2017-08-21T08:12:53.048Z,3.60
2017-08-21T08:15:26.737Z,3.83
2017-08-21T08:18:00.352Z,3.80
2017-08-21T08:20:34.054Z,4.37
2017-08-21T08:23:07.639Z,3.50
2017-08-21T08:25:41.446Z,4.00
2017-08-21T08:28:15.062Z,3.53
2017-08-21T08:30:48.649Z,3.50
2017-08-21T08:33:22.090Z,3.40
2017-08-21T08:35:56.421Z,3.17
2017-08-21T08:38:29.983Z,3.53
2017-08-21T08:41:03.662Z,4.20
2017-08-21T08:43:37.283Z,3.33
2017-08-21T08:46:10.766Z,3.80
2017-08-21T08:48:44.410Z,3.30
2017-08-21T08:51:19.132Z,3.13
2017-08-21T08:53:52.910Z,2.97
2017-08-21T08:56:26.614Z,4.37
2017-08-21T08:59:00.203Z,3.77
2017-08-21T09:01:33.819Z,4.00
2017-08-21T09:04:07.465Z,3.83
2017-08-21T09:06:41.105Z,3.40
2017-08-21T09:09:15.478Z,3.40
2017-08-21T09:11:53.076Z,2.83
2017-08-21T09:14:26.725Z,2.97
2017-08-21T09:17:01.246Z,4.10
2017-08-21T09:19:35.772Z,2.40
2017-08-21T09:22:09.310Z,3.27
2017-08-21T09:24:43.069Z,2.83
2017-08-21T09:27:17.385Z,2.93
2017-08-21T09:29:51.089Z,2.40
2017-08-21T09:32:24.994Z,2.60
2017-08-21T09:34:58.755Z,2.40
2017-08-21T09:37:32.369Z,3.40
2017-08-21T09:40:05.845Z,3.37
2017-08-21T09:42:39.589Z,4.10
2017-08-21T09:45:44.026Z,3.33
2017-08-21T09:48:18.037Z,2.87
2017-08-21T09:50:51.850Z,3.27
2017-08-21T09:53:25.953Z,3.07
2017-08-21T09:56:00.373Z,3.50
2017-08-21T09:58:34.077Z,2.80
2017-08-21T10:01:07.780Z,3.30
2017-08-21T10:03:41.279Z,2.90
2017-08-21T10:06:14.878Z,3.57
2017-08-21T10:08:48.582Z,3.10
2017-08-21T10:11:22.286Z,3.50
2017-08-21T10:13:55.989Z,2.73
2017-08-21T10:16:29.485Z,2.93
2017-08-21T10:19:03.094Z,2.97
2017-08-21T10:21:36.689Z,3.13
2017-08-21T10:24:10.275Z,2.67
2017-08-21T10:26:43.994Z,2.40
2017-08-21T10:29:17.589Z,2.80
2017-08-21T10:31:51.294Z,3.00
2017-08-21T10:34:24.902Z,3.17
2017-08-21T10:36:58.497Z,3.33
2017-08-21T10:39:32.001Z,3.00
2017-08-21T10:42:05.494Z,3.17
2017-08-21T10:44:39.101Z,3.00
2017-08-21T10:47:12.694Z,2.40
2017-08-21T10:49:46.606Z,2.50
2017-08-21T10:52:20.314Z,2.63
2017-08-21T10:54:54.109Z,2.97
2017-08-21T10:57:27.709Z,2.37
2017-08-21T11:00:01.319Z,2.20
2017-08-21T11:02:34.863Z,2.30
2017-08-21T11:05:08.618Z,2.20
2017-08-21T11:07:42.178Z,2.10
2017-08-21T11:10:15.721Z,2.33
2017-08-21T11:12:49.540Z,2.30
2017-08-21T11:15:23.127Z,2.00
2017-08-21T11:17:56.732Z,1.97
2017-08-21T11:20:30.338Z,1.93
2017-08-21T11:23:04.140Z,2.40
2017-08-21T11:25:37.782Z,2.10
2017-08-21T11:28:11.334Z,1.80
2017-08-21T11:30:44.802Z,1.43
2017-08-21T11:33:18.362Z,1.57
2017-08-21T11:35:52.005Z,1.33
2017-08-21T11:38:26.259Z,1.20
2017-08-21T11:41:00.163Z,1.17
2017-08-21T11:43:33.861Z,1.33
2017-08-21T11:46:07.579Z,2.03
2017-08-21T11:48:41.374Z,1.70
2017-08-21T11:51:14.921Z,1.67
2017-08-21T11:53:49.346Z,1.50
2017-08-21T11:56:22.986Z,2.40
2017-08-21T11:58:56.789Z,1.60
2017-08-21T12:01:30.493Z,1.73
2017-08-21T12:04:04.299Z,1.10
2017-08-21T12:06:37.897Z,1.20
2017-08-21T12:09:11.502Z,1.37
2017-08-21T12:11:45.510Z,1.00
2017-08-21T12:14:19.222Z,1.30
2017-08-21T12:16:52.815Z,1.43
2017-08-21T12:19:26.329Z,1.30
2017-08-21T12:21:59.970Z,1.20
2017-08-21T12:24:33.530Z,1.20
2017-08-21T12:27:07.238Z,1.30
2017-08-21T12:29:40.809Z,1.00
2017-08-21T12:32:14.382Z,1.00
2017-08-21T12:34:48.018Z,1.40
2017-08-21T12:37:21.723Z,1.20
2017-08-21T12:39:55.221Z,1.10
2017-08-21T12:42:28.922Z,1.27
2017-08-21T12:45:02.396Z,2.13
2017-08-21T12:47:36.026Z,1.23
2017-08-21T12:50:09.525Z,1.30
2017-08-21T12:52:43.221Z,1.30
2017-08-21T12:55:16.898Z,1.40
2017-08-21T12:57:50.597Z,1.47
2017-08-21T13:00:24.225Z,1.50
2017-08-21T13:02:57.805Z,1.30
2017-08-21T13:05:31.429Z,2.00
2017-08-21T13:08:04.990Z,1.00
2017-08-21T13:10:38.526Z,1.30
2017-08-21T13:13:12.127Z,1.30
2017-08-21T13:15:45.830Z,1.60
2017-08-21T13:18:19.439Z,1.30
2017-08-21T13:20:53.162Z,1.50
2017-08-21T13:23:26.733Z,1.77
2017-08-21T13:26:00.878Z,1.67
2017-08-21T13:28:34.490Z,1.93
2017-08-21T13:31:08.300Z,1.30
2017-08-21T13:33:41.719Z,1.40
2017-08-21T13:36:15.251Z,1.30
2017-08-21T13:38:49.058Z,1.23
2017-08-21T13:41:22.775Z,1.97
2017-08-21T13:43:56.566Z,1.50
2017-08-21T13:46:30.142Z,1.40
2017-08-21T13:49:03.771Z,1.33
2017-08-21T13:51:37.280Z,1.23
2017-08-21T13:54:10.874Z,1.27
2017-08-21T13:56:44.570Z,1.20
2017-08-21T13:59:18.137Z,1.20
2017-08-21T14:01:51.869Z,1.60
2017-08-21T14:04:25.686Z,1.37
2017-08-21T14:06:59.282Z,1.40
2017-08-21T14:09:32.846Z,1.77
2017-08-21T14:12:06.482Z,1.90
2017-08-21T14:14:39.986Z,1.30
2017-08-21T14:17:13.577Z,1.50
2017-08-21T14:19:47.282Z,1.70
2017-08-21T14:22:20.885Z,1.20
2017-08-21T14:24:54.481Z,1.33
2017-08-21T14:27:28.521Z,1.20
2017-08-21T14:30:02.206Z,1.50
2017-08-21T14:32:35.798Z,1.40
2017-08-21T14:35:09.614Z,1.43
2017-08-21T14:37:43.414Z,1.50
2017-08-21T14:40:17.009Z,1.90
2017-08-21T14:42:50.497Z,1.40
2017-08-21T14:45:24.210Z,1.23
2017-08-21T14:47:57.817Z,1.80
2017-08-21T14:50:31.513Z,1.47
2017-08-21T14:53:05.118Z,1.63
2017-08-21T14:55:38.636Z,1.40
2017-08-21T14:58:12.209Z,1.67
2017-08-21T15:00:45.927Z,1.47
2017-08-21T15:03:19.846Z,1.27
2017-08-21T15:05:53.526Z,1.50
2017-08-21T15:08:27.128Z,1.93
2017-08-21T15:11:00.627Z,1.37
2017-08-21T15:13:34.734Z,1.70
2017-08-21T15:16:08.315Z,2.27
2017-08-21T15:18:41.961Z,1.53
2017-08-21T15:21:15.621Z,2.00
2017-08-21T15:23:49.218Z,1.47
2017-08-21T15:26:22.746Z,1.47
2017-08-21T15:28:56.747Z,1.43
2017-08-21T15:31:30.466Z,1.50
2017-08-21T15:34:04.772Z,1.90
2017-08-21T15:36:38.486Z,1.90
2017-08-21T15:39:12.254Z,1.50
2017-08-21T15:41:45.994Z,1.73
2017-08-21T15:44:19.999Z,1.70
2017-08-21T15:46:53.810Z,1.83
2017-08-21T15:49:27.603Z,1.47
2017-08-21T15:52:01.557Z,1.87
2017-08-21T15:54:35.218Z,1.70
2017-08-21T15:57:08.786Z,2.07
2017-08-21T15:59:42.258Z,1.93
2017-08-21T16:02:15.956Z,1.83
2017-08-21T16:04:49.594Z,2.33
2017-08-21T16:07:23.245Z,1.57
2017-08-21T16:09:56.874Z,1.40
2017-08-21T16:12:30.628Z,2.10
2017-08-21T16:15:04.225Z,1.70
2017-08-21T16:17:37.826Z,3.53
2017-08-21T16:20:11.341Z,1.50
2017-08-21T16:22:45.130Z,2.03
2017-08-21T16:25:19.138Z,1.80
2017-08-21T16:27:52.738Z,1.40
2017-08-21T16:30:26.347Z,1.67
2017-08-21T16:33:00.045Z,1.20
2017-08-21T16:35:33.605Z,1.83
2017-08-21T16:38:07.246Z,1.77
2017-08-21T16:40:41.058Z,1.80
2017-08-21T16:43:14.857Z,2.70
2017-08-21T16:45:48.294Z,1.97
2017-08-21T16:48:22.265Z,2.30
2017-08-21T16:50:55.761Z,1.60
2017-08-21T16:53:29.465Z,1.80
2017-08-21T16:56:03.034Z,1.60
2017-08-21T16:58:36.605Z,2.10
2017-08-21T17:01:10.262Z,2.00
2017-08-21T17:03:43.748Z,1.40
2017-08-21T17:06:17.366Z,1.80
2017-08-21T17:08:51.171Z,2.60
2017-08-21T17:11:24.706Z,2.20
2017-08-21T17:13:58.382Z,2.10
2017-08-21T17:16:32.114Z,1.37
2017-08-21T17:19:06.594Z,1.80
2017-08-21T17:21:40.298Z,2.53
2017-08-21T17:24:14.000Z,1.63
2017-08-21T17:26:49.154Z,2.13
2017-08-21T17:29:22.762Z,2.07
2017-08-21T17:31:56.437Z,2.20
2017-08-21T17:34:30.141Z,1.80
2017-08-21T17:37:03.845Z,1.93
2017-08-21T17:39:37.664Z,2.27
2017-08-21T17:42:11.403Z,1.83
2017-08-21T17:44:45.058Z,1.70
2017-08-21T17:47:18.889Z,1.83
2017-08-21T17:49:52.571Z,2.27
2017-08-21T17:52:26.165Z,3.37
2017-08-21T17:55:00.297Z,4.07
2017-08-21T17:57:33.986Z,3.00
2017-08-21T18:00:07.582Z,4.40
2017-08-21T18:02:41.182Z,2.80
2017-08-21T18:05:14.774Z,2.00
2017-08-21T18:07:48.386Z,2.23
2017-08-21T18:10:22.085Z,2.10
2017-08-21T18:12:55.696Z,1.90
2017-08-21T18:15:29.189Z,2.00
2017-08-21T18:18:02.898Z,2.40
2017-08-21T18:20:36.610Z,2.03
2017-08-21T18:23:10.254Z,2.03
2017-08-21T18:25:44.109Z,1.60
2017-08-21T18:28:17.806Z,2.20
2017-08-21T18:30:51.305Z,1.90
2017-08-21T18:33:24.870Z,1.77
2017-08-21T18:35:58.501Z,1.73
2017-08-21T18:38:32.078Z,2.00
2017-08-21T18:41:05.705Z,2.50
2017-08-21T18:43:39.510Z,2.57
2017-08-21T18:46:12.949Z,2.27
2017-08-21T18:48:46.387Z,2.70
2017-08-21T18:51:20.042Z,2.00
2017-08-21T18:53:53.718Z,2.53
2017-08-21T18:56:27.367Z,2.20
2017-08-21T18:59:00.830Z,2.50
2017-08-21T19:01:34.441Z,2.40
2017-08-21T19:04:07.886Z,2.13
2017-08-21T19:06:41.437Z,2.53
2017-08-21T19:09:14.942Z,2.07
2017-08-21T19:11:48.473Z,2.07
2017-08-21T19:14:21.986Z,1.90
2017-08-21T19:16:55.641Z,2.33
2017-08-21T19:19:29.082Z,2.00
2017-08-21T19:22:02.726Z,2.07
2017-08-21T19:24:36.170Z,2.60
2017-08-21T19:27:09.762Z,1.93
2017-08-21T19:29:43.404Z,2.10
2017-08-21T19:32:16.846Z,2.20
2017-08-21T19:34:50.357Z,2.23
2017-08-21T19:37:23.894Z,1.90
2017-08-21T19:39:57.338Z,2.50
2017-08-21T19:42:30.858Z,2.23
2017-08-21T19:45:04.378Z,2.00
2017-08-21T19:47:37.892Z,2.13
2017-08-21T19:50:11.514Z,1.83
2017-08-21T19:52:45.026Z,2.50
2017-08-21T19:55:18.657Z,2.50
2017-08-21T19:57:52.204Z,1.93
2017-08-21T20:00:25.837Z,2.27
2017-08-21T20:02:59.490Z,1.93
2017-08-21T20:05:32.998Z,4.10
2017-08-21T20:08:06.662Z,7.70
2017-08-21T20:10:40.116Z,4.10
2017-08-21T20:13:13.625Z,2.50
2017-08-21T20:15:47.258Z,2.27
2017-08-21T20:18:20.907Z,2.07
2017-08-21T20:20:54.377Z,2.17
2017-08-21T20:23:28.598Z,2.77
2017-08-21T20:26:02.790Z,2.53
2017-08-21T20:28:36.330Z,1.97
2017-08-21T20:31:09.837Z,2.37
2017-08-21T20:33:43.357Z,2.20
2017-08-21T20:36:16.862Z,2.50
2017-08-21T20:38:50.532Z,2.47
2017-08-21T20:41:23.970Z,2.10
2017-08-21T20:43:57.642Z,2.53
2017-08-21T20:46:31.078Z,2.07
2017-08-21T20:49:04.619Z,2.03
2017-08-21T20:51:38.062Z,2.37
2017-08-21T20:54:11.677Z,2.17
2017-08-21T20:56:45.241Z,1.87
2017-08-21T20:59:19.014Z,1.70
2017-08-21T21:01:52.563Z,7.83
2017-08-21T21:04:26.182Z,5.33
2017-08-21T21:06:59.814Z,6.63
2017-08-21T21:09:33.322Z,5.70
2017-08-21T21:12:07.028Z,9.87
2017-08-21T21:14:41.438Z,5.20
2017-08-21T21:17:15.462Z,2.43
2017-08-21T21:19:49.046Z,2.27
2017-08-21T21:22:22.650Z,2.67
2017-08-21T21:24:56.150Z,2.10
2017-08-21T21:27:29.746Z,2.17
2017-08-21T21:30:03.350Z,1.93
2017-08-21T21:32:37.358Z,1.90
2017-08-21T21:35:11.062Z,2.13
2017-08-21T21:37:44.626Z,2.27
2017-08-21T21:40:19.105Z,2.03
2017-08-21T21:42:52.733Z,1.87
2017-08-21T21:45:26.389Z,1.97
2017-08-21T21:47:59.982Z,2.20
2017-08-21T21:50:33.538Z,1.93
2017-08-21T21:53:07.290Z,2.13
2017-08-21T21:55:41.608Z,2.17
2017-08-21T21:58:15.410Z,2.03
2017-08-21T22:00:49.013Z,2.53
2017-08-21T22:03:22.609Z,2.10
2017-08-21T22:05:56.114Z,2.00
2017-08-21T22:08:29.817Z,2.00
2017-08-21T22:11:04.338Z,2.07
2017-08-21T22:13:37.941Z,2.13
2017-08-21T22:16:11.742Z,2.20
2017-08-21T22:18:45.341Z,2.37
2017-08-21T22:21:19.082Z,1.70
2017-08-21T22:23:52.955Z,2.30
2017-08-21T22:26:26.554Z,2.13
2017-08-21T22:28:59.993Z,3.10
2017-08-21T22:31:34.386Z,2.00
2017-08-21T22:34:07.973Z,2.33
2017-08-21T22:36:42.081Z,2.10
2017-08-21T22:39:15.686Z,2.30
2017-08-21T22:41:49.777Z,2.57
2017-08-21T22:44:23.501Z,2.43
2017-08-21T22:46:57.097Z,2.60
2017-08-21T22:49:30.698Z,2.17
2017-08-21T22:52:05.021Z,2.43
2017-08-21T22:54:38.617Z,2.33
2017-08-21T22:57:12.422Z,2.17
2017-08-21T22:59:46.014Z,2.17
2017-08-21T23:02:37.298Z,2.53
2017-08-21T23:05:11.757Z,2.43
2017-08-21T23:07:45.462Z,2.50
2017-08-21T23:10:19.272Z,2.37
2017-08-21T23:12:53.084Z,2.30
2017-08-21T23:15:26.677Z,3.30
2017-08-21T23:18:00.273Z,2.43
2017-08-21T23:20:33.870Z,2.40
2017-08-21T23:23:07.682Z,2.77
2017-08-21T23:25:41.385Z,2.70
2017-08-21T23:28:14.987Z,2.83
2017-08-21T23:30:48.482Z,2.30
2017-08-21T23:33:22.290Z,2.90
2017-08-21T23:35:56.722Z,3.20
2017-08-21T23:38:30.310Z,2.83
2017-08-21T23:41:03.926Z,2.40
2017-08-21T23:43:37.623Z,2.20
2017-08-21T23:46:11.318Z,2.30
2017-08-21T23:48:44.809Z,2.47
2017-08-21T23:51:18.428Z,3.00
2017-08-21T23:53:52.138Z,2.30
2017-08-21T23:56:26.594Z,2.67
2017-08-21T23:59:00.137Z,2.47
